createdAt,value
2019-02-17T00:01:54.554Z,101699.54
2019-02-17T00:04:26.344Z,101693.09
2019-02-17T00:06:58.024Z,101690.28
2019-02-17T00:09:29.756Z,101686.36
2019-02-17T00:12:01.485Z,101691.95
2019-02-17T00:14:32.861Z,101692.06
2019-02-17T00:17:04.350Z,101694.73
2019-02-17T00:19:35.645Z,101697.81
2019-02-17T00:22:06.955Z,101695.68
2019-02-17T00:24:38.715Z,101695.27
2019-02-17T00:27:10.291Z,101698.17
2019-02-17T00:29:42.281Z,101695.30
2019-02-17T00:32:13.786Z,101694.27
2019-02-17T00:34:45.515Z,101694.55
2019-02-17T00:37:16.843Z,101695.02
2019-02-17T00:39:48.810Z,101702.48
2019-02-17T00:42:20.513Z,101691.25
2019-02-17T00:44:51.907Z,101697.14
2019-02-17T00:47:23.312Z,101694.57
2019-02-17T00:49:54.623Z,101696.75
2019-02-17T00:52:25.905Z,101704.08
2019-02-17T00:54:57.929Z,101700.52
2019-02-17T00:57:29.901Z,101699.34
2019-02-17T01:00:01.795Z,101707.59
2019-02-17T01:02:33.966Z,101706.78
2019-02-17T01:05:05.563Z,101701.59
2019-02-17T01:07:36.886Z,101701.13
2019-02-17T01:10:08.510Z,101701.77
2019-02-17T01:12:39.765Z,101698.59
2019-02-17T01:15:11.712Z,101702.57
2019-02-17T01:17:43.395Z,101703.30
2019-02-17T01:20:15.011Z,101702.77
2019-02-17T01:22:46.328Z,101708.77
2019-02-17T01:25:18.994Z,101703.55
2019-02-17T01:27:50.683Z,101702.09
2019-02-17T01:30:23.140Z,101702.09
2019-02-17T01:32:54.612Z,101701.25
2019-02-17T01:35:26.211Z,101698.15
2019-02-17T01:37:58.380Z,101700.23
2019-02-17T01:40:30.023Z,101699.62
2019-02-17T01:43:01.287Z,101694.22
2019-02-17T01:45:32.839Z,101700.59
2019-02-17T01:48:04.325Z,101695.34
2019-02-17T01:50:35.687Z,101695.82
2019-02-17T01:53:07.114Z,101696.62
2019-02-17T01:55:38.513Z,101693.55
2019-02-17T01:58:09.796Z,101693.48
2019-02-17T02:00:41.273Z,101688.72
2019-02-17T02:03:12.904Z,101693.48
2019-02-17T02:05:44.777Z,101689.70
2019-02-17T02:08:16.049Z,101683.70
2019-02-17T02:10:47.363Z,101683.12
2019-02-17T02:13:19.049Z,101678.63
2019-02-17T02:15:51.023Z,101678.94
2019-02-17T02:18:22.798Z,101677.71
2019-02-17T02:20:55.066Z,101675.16
2019-02-17T02:23:26.814Z,101673.45
2019-02-17T02:25:58.671Z,101673.25
2019-02-17T02:28:30.047Z,101666.98
2019-02-17T02:31:01.946Z,101668.96
2019-02-17T02:33:33.925Z,101662.06
2019-02-17T02:36:05.318Z,101665.53
2019-02-17T02:38:36.770Z,101664.30
2019-02-17T02:41:08.127Z,101659.44
2019-02-17T02:43:40.059Z,101664.97
2019-02-17T02:46:11.716Z,101660.97
2019-02-17T02:48:43.779Z,101658.41
2019-02-17T02:51:15.007Z,101661.33
2019-02-17T02:53:46.684Z,101660.14
2019-02-17T02:56:18.629Z,101660.42
2019-02-17T02:58:50.605Z,101658.41
2019-02-17T03:01:22.496Z,101659.16
2019-02-17T03:03:54.308Z,101657.52
2019-02-17T03:06:57.088Z,101662.58
2019-02-17T03:09:28.800Z,101658.13
2019-02-17T03:12:00.869Z,101660.97
2019-02-17T03:14:32.449Z,101654.33
2019-02-17T03:17:04.144Z,101655.28
2019-02-17T03:19:35.492Z,101660.23
2019-02-17T03:22:06.841Z,101658.05
2019-02-17T03:24:38.809Z,101664.78
2019-02-17T03:27:10.994Z,101665.52
2019-02-17T03:29:43.436Z,101664.55
2019-02-17T03:32:15.374Z,101665.90
2019-02-17T03:34:46.819Z,101666.67
2019-02-17T03:37:18.409Z,101664.13
2019-02-17T03:39:49.817Z,101658.98
2019-02-17T03:42:21.099Z,101667.25
2019-02-17T03:44:52.494Z,101664.95
2019-02-17T03:47:24.769Z,101668.95
2019-02-17T03:49:56.059Z,101664.77
2019-02-17T03:52:27.642Z,101663.77
2019-02-17T03:54:59.082Z,101664.81
2019-02-17T03:57:30.381Z,101665.51
2019-02-17T04:00:01.849Z,101671.23
2019-02-17T04:02:33.709Z,101666.34
2019-02-17T04:05:05.101Z,101659.16
2019-02-17T04:07:37.128Z,101661.17
2019-02-17T04:10:09.251Z,101655.58
2019-02-17T04:12:40.748Z,101658.73
2019-02-17T04:15:12.819Z,101656.38
2019-02-17T04:17:44.171Z,101643.48
2019-02-17T04:20:15.555Z,101651.95
2019-02-17T04:22:46.883Z,101649.72
2019-02-17T04:25:19.112Z,101656.37
2019-02-17T04:27:52.624Z,101642.30
2019-02-17T04:30:29.318Z,101646.13
2019-02-17T04:32:59.028Z,101643.95
2019-02-17T04:35:33.181Z,101648.50
2019-02-17T04:38:04.836Z,101657.33
2019-02-17T04:40:37.989Z,101658.62
2019-02-17T04:43:10.054Z,101660.27
2019-02-17T04:45:42.185Z,101653.77
2019-02-17T04:48:13.809Z,101644.89
2019-02-17T04:50:45.708Z,101648.34
2019-02-17T04:53:17.013Z,101643.65
2019-02-17T04:55:48.455Z,101652.23
2019-02-17T04:58:20.115Z,101647.55
2019-02-17T05:00:51.451Z,101644.83
2019-02-17T05:03:22.812Z,101643.07
2019-02-17T05:05:54.625Z,101644.31
2019-02-17T05:08:25.934Z,101645.59
2019-02-17T05:10:57.275Z,101643.02
2019-02-17T05:13:28.571Z,101642.82
2019-02-17T05:16:00.224Z,101641.66
2019-02-17T05:18:31.989Z,101642.28
2019-02-17T05:21:03.697Z,101639.62
2019-02-17T05:23:35.264Z,101635.97
2019-02-17T05:26:06.951Z,101636.73
2019-02-17T05:28:38.861Z,101642.20
2019-02-17T05:31:10.536Z,101641.94
2019-02-17T05:33:42.255Z,101639.09
2019-02-17T05:36:13.551Z,101641.75
2019-02-17T05:38:45.702Z,101642.16
2019-02-17T05:41:17.027Z,101645.94
2019-02-17T05:43:48.342Z,101639.09
2019-02-17T05:46:19.611Z,101636.52
2019-02-17T05:48:51.335Z,101638.97
2019-02-17T05:51:23.307Z,101640.20
2019-02-17T05:53:54.932Z,101637.63
2019-02-17T05:56:26.596Z,101638.34
2019-02-17T05:58:57.918Z,101635.23
2019-02-17T06:01:29.595Z,101645.22
2019-02-17T06:04:00.957Z,101642.69
2019-02-17T06:06:32.689Z,101654.10
2019-02-17T06:09:05.728Z,101652.52
2019-02-17T06:11:37.546Z,101648.38
2019-02-17T06:14:09.273Z,101648.94
2019-02-17T06:16:41.022Z,101647.64
2019-02-17T06:19:12.672Z,101653.24
2019-02-17T06:21:43.975Z,101654.55
2019-02-17T06:24:15.318Z,101654.36
2019-02-17T06:26:46.648Z,101653.47
2019-02-17T06:29:18.467Z,101655.20
2019-02-17T06:31:50.141Z,101663.09
2019-02-17T06:34:21.504Z,101657.59
2019-02-17T06:36:53.084Z,101657.59
2019-02-17T06:39:24.648Z,101654.39
2019-02-17T06:41:55.979Z,101654.98
2019-02-17T06:44:27.950Z,101659.12
2019-02-17T06:47:02.439Z,101665.67
2019-02-17T06:49:33.918Z,101660.20
2019-02-17T06:52:05.222Z,101659.89
2019-02-17T06:54:37.033Z,101661.98
2019-02-17T06:57:18.363Z,101660.69
2019-02-17T06:59:51.580Z,101659.89
2019-02-17T07:02:23.172Z,101655.40
2019-02-17T07:05:13.323Z,101658.05
2019-02-17T07:07:44.668Z,101664.55
2019-02-17T07:10:16.168Z,101667.27
2019-02-17T07:12:47.525Z,101672.77
2019-02-17T07:15:18.846Z,101670.85
2019-02-17T07:17:50.200Z,101669.08
2019-02-17T07:20:21.970Z,101667.22
2019-02-17T07:22:53.919Z,101665.88
2019-02-17T07:25:30.032Z,101665.88
2019-02-17T07:27:59.780Z,101664.80
2019-02-17T07:30:31.368Z,101655.52
2019-02-17T07:33:03.344Z,101660.69
2019-02-17T07:35:36.005Z,101659.72
2019-02-17T07:38:08.451Z,101655.94
2019-02-17T07:40:40.056Z,101654.23
2019-02-17T07:43:11.492Z,101671.02
2019-02-17T07:45:43.063Z,101667.75
2019-02-17T07:48:15.395Z,101669.42
2019-02-17T07:50:47.724Z,101662.59
2019-02-17T07:53:19.354Z,101663.08
2019-02-17T07:55:50.568Z,101662.16
2019-02-17T07:58:22.185Z,101657.28
2019-02-17T08:00:53.504Z,101659.73
2019-02-17T08:03:25.486Z,101652.66
2019-02-17T08:05:57.098Z,101656.47
2019-02-17T08:08:28.776Z,101656.77
2019-02-17T08:11:03.990Z,101656.02
2019-02-17T08:13:33.789Z,101654.63
2019-02-17T08:16:05.023Z,101659.12
2019-02-17T08:18:36.327Z,101660.10
2019-02-17T08:21:08.979Z,101657.95
2019-02-17T08:23:41.371Z,101659.33
2019-02-17T08:26:13.315Z,101653.53
2019-02-17T08:28:44.792Z,101655.57
2019-02-17T08:31:16.213Z,101649.20
2019-02-17T08:33:47.540Z,101653.34
2019-02-17T08:36:19.222Z,101640.24
2019-02-17T08:38:51.185Z,101645.80
2019-02-17T08:41:23.112Z,101644.61
2019-02-17T08:43:54.469Z,101640.28
2019-02-17T08:46:26.318Z,101644.86
2019-02-17T08:48:58.272Z,101642.75
2019-02-17T08:51:30.355Z,101640.25
2019-02-17T08:54:02.501Z,101635.86
2019-02-17T08:56:34.275Z,101630.89
2019-02-17T08:59:06.043Z,101635.95
2019-02-17T09:01:37.661Z,101624.55
2019-02-17T09:04:10.244Z,101626.45
2019-02-17T09:06:42.754Z,101629.20
2019-02-17T09:09:15.145Z,101622.20
2019-02-17T09:11:47.222Z,101616.67
2019-02-17T09:14:18.508Z,101620.50
2019-02-17T09:16:49.804Z,101614.48
2019-02-17T09:19:21.065Z,101612.11
2019-02-17T09:21:52.501Z,101614.29
2019-02-17T09:24:23.805Z,101617.74
2019-02-17T09:26:55.828Z,101616.75
2019-02-17T09:29:27.538Z,101616.55
2019-02-17T09:31:59.504Z,101616.37
2019-02-17T09:34:30.854Z,101607.27
2019-02-17T09:37:02.223Z,101612.76
2019-02-17T09:39:33.758Z,101609.34
2019-02-17T09:42:05.226Z,101608.52
2019-02-17T09:44:36.898Z,101603.66
2019-02-17T09:47:08.719Z,101601.63
2019-02-17T09:49:40.394Z,101598.72
2019-02-17T09:52:12.500Z,101604.27
2019-02-17T09:54:43.872Z,101605.74
2019-02-17T09:57:15.181Z,101606.14
2019-02-17T09:59:46.988Z,101608.91
2019-02-17T10:02:26.269Z,101600.20
2019-02-17T10:04:52.245Z,101605.95
2019-02-17T10:07:23.956Z,101600.88
2019-02-17T10:09:56.083Z,101608.98
2019-02-17T10:12:27.758Z,101606.06
2019-02-17T10:14:59.393Z,101604.13
2019-02-17T10:17:31.039Z,101604.86
2019-02-17T10:20:02.376Z,101603.91
2019-02-17T10:22:34.362Z,101602.35
2019-02-17T10:25:06.392Z,101595.67
2019-02-17T10:27:38.795Z,101598.38
2019-02-17T10:30:12.969Z,101589.70
2019-02-17T10:32:44.548Z,101589.70
2019-02-17T10:35:16.174Z,101592.53
2019-02-17T10:37:48.228Z,101591.70
2019-02-17T10:40:19.614Z,101587.55
2019-02-17T10:42:50.904Z,101593.42
2019-02-17T10:45:22.252Z,101586.89
2019-02-17T10:47:53.507Z,101587.07
2019-02-17T10:50:24.856Z,101580.20
2019-02-17T10:52:57.922Z,101576.44
2019-02-17T10:55:29.542Z,101569.72
2019-02-17T10:58:01.195Z,101567.13
2019-02-17T11:00:32.952Z,101562.25
2019-02-17T11:03:10.391Z,101557.17
2019-02-17T11:05:43.506Z,101553.51
2019-02-17T11:08:14.911Z,101548.52
2019-02-17T11:10:46.851Z,101545.73
2019-02-17T11:13:18.450Z,101540.73
2019-02-17T11:15:49.804Z,101538.23
2019-02-17T11:18:21.108Z,101536.70
2019-02-17T11:20:52.764Z,101529.98
2019-02-17T11:23:24.420Z,101528.38
2019-02-17T11:25:56.078Z,101529.47
2019-02-17T11:28:27.749Z,101514.20
2019-02-17T11:31:00.648Z,101506.80
2019-02-17T11:33:31.992Z,101511.22
2019-02-17T11:36:03.266Z,101505.39
2019-02-17T11:38:34.711Z,101498.66
2019-02-17T11:41:06.040Z,101496.34
2019-02-17T11:43:37.764Z,101495.88
2019-02-17T11:46:09.159Z,101494.55
2019-02-17T11:48:41.104Z,101488.88
2019-02-17T11:51:12.631Z,101484.42
2019-02-17T11:53:44.028Z,101475.80
2019-02-17T11:56:15.325Z,101476.48
2019-02-17T11:58:46.619Z,101473.79
2019-02-17T12:01:20.523Z,101474.14
2019-02-17T12:03:53.982Z,101475.34
2019-02-17T12:06:26.300Z,101473.72
2019-02-17T12:08:57.607Z,101470.05
2019-02-17T12:11:29.703Z,101468.06
2019-02-17T12:14:01.355Z,101460.63
2019-02-17T12:16:37.009Z,101467.70
2019-02-17T12:19:06.523Z,101459.45
2019-02-17T12:22:12.635Z,101456.87
2019-02-17T12:25:00.739Z,101443.03
2019-02-17T12:27:37.759Z,101442.85
2019-02-17T12:30:14.169Z,101438.45
2019-02-17T12:32:46.860Z,101433.44
2019-02-17T12:35:18.615Z,101430.91
2019-02-17T12:37:50.275Z,101425.25
2019-02-17T12:40:21.596Z,101422.61
2019-02-17T12:42:53.637Z,101418.53
2019-02-17T12:45:25.250Z,101417.20
2019-02-17T12:47:58.405Z,101410.13
2019-02-17T12:50:30.476Z,101405.22
2019-02-17T12:53:02.451Z,101405.31
2019-02-17T12:55:33.759Z,101398.91
2019-02-17T12:58:05.772Z,101393.58
2019-02-17T13:00:38.385Z,101393.78
2019-02-17T13:03:09.798Z,101391.77
2019-02-17T13:05:41.353Z,101388.86
2019-02-17T13:08:13.253Z,101387.41
2019-02-17T13:10:44.832Z,101387.55
2019-02-17T13:13:16.217Z,101385.28
2019-02-17T13:15:49.289Z,101388.50
2019-02-17T13:18:21.445Z,101385.70
2019-02-17T13:20:53.856Z,101385.91
2019-02-17T13:23:25.598Z,101388.28
2019-02-17T13:32:48.334Z,101373.76
2019-02-17T13:35:20.749Z,101363.03
2019-02-17T13:37:52.468Z,101369.67
2019-02-17T13:40:23.862Z,101363.39
2019-02-17T13:42:55.206Z,101368.69
2019-02-17T13:45:27.174Z,101368.53
2019-02-17T13:47:58.811Z,101365.64
2019-02-17T13:50:30.504Z,101365.52
2019-02-17T13:53:11.425Z,101364.95
2019-02-17T13:55:36.354Z,101363.88
2019-02-17T13:58:08.778Z,101355.07
2019-02-17T14:00:40.921Z,101364.38
2019-02-17T14:03:12.399Z,101358.00
2019-02-17T14:05:46.252Z,101349.63
2019-02-17T14:08:18.190Z,101350.78
2019-02-17T14:10:49.898Z,101350.58
2019-02-17T14:13:21.215Z,101349.46
2019-02-17T14:15:52.818Z,101346.39
2019-02-17T14:18:24.286Z,101346.48
2019-02-17T14:20:56.255Z,101338.33
2019-02-17T14:23:27.614Z,101342.39
2019-02-17T14:25:59.036Z,101341.70
2019-02-17T14:28:30.415Z,101336.41
2019-02-17T14:31:02.789Z,101340.97
2019-02-17T14:33:34.580Z,101331.27
2019-02-17T14:36:05.888Z,101323.19
2019-02-17T14:38:37.280Z,101328.69
2019-02-17T14:41:08.788Z,101325.59
2019-02-17T14:43:40.442Z,101327.58
2019-02-17T14:46:11.757Z,101321.57
2019-02-17T14:48:43.814Z,101325.14
2019-02-17T14:51:15.126Z,101325.20
2019-02-17T14:53:46.506Z,101313.85
2019-02-17T14:56:18.264Z,101315.62
2019-02-17T14:58:50.519Z,101316.69
2019-02-17T15:01:22.227Z,101311.54
2019-02-17T15:03:53.631Z,101305.08
2019-02-17T15:06:25.016Z,101298.36
2019-02-17T15:08:56.363Z,101304.77
2019-02-17T15:11:27.701Z,101301.70
2019-02-17T15:13:59.016Z,101297.89
2019-02-17T15:16:30.836Z,101295.37
2019-02-17T15:19:02.548Z,101293.22
2019-02-17T15:21:34.341Z,101294.22
2019-02-17T15:24:07.871Z,101291.75
2019-02-17T15:26:39.154Z,101288.81
2019-02-17T15:29:11.389Z,101285.94
2019-02-17T15:31:43.352Z,101286.01
2019-02-17T15:34:18.747Z,101288.91
2019-02-17T15:36:48.365Z,101292.14
2019-02-17T15:39:19.632Z,101293.17
2019-02-17T15:41:51.724Z,101282.39
2019-02-17T15:44:23.051Z,101287.41
2019-02-17T15:46:54.947Z,101287.09
2019-02-17T15:49:26.251Z,101288.42
2019-02-17T15:51:58.548Z,101287.29
2019-02-17T15:54:29.920Z,101291.02
2019-02-17T15:57:01.423Z,101282.44
2019-02-17T15:59:33.170Z,101276.57
2019-02-17T16:02:05.234Z,101278.16
2019-02-17T16:04:37.112Z,101273.41
2019-02-17T16:07:09.249Z,101269.50
2019-02-17T16:09:41.002Z,101272.13
2019-02-17T16:12:12.671Z,101264.34
2019-02-17T16:14:44.200Z,101271.41
2019-02-17T16:17:15.818Z,101268.43
2019-02-17T16:19:47.892Z,101274.61
2019-02-17T16:22:19.224Z,101271.59
2019-02-17T16:24:50.565Z,101264.23
2019-02-17T16:27:22.232Z,101263.48
2019-02-17T16:29:53.870Z,101264.43
2019-02-17T16:32:25.289Z,101267.14
2019-02-17T16:34:56.628Z,101264.14
2019-02-17T16:37:27.924Z,101272.51
2019-02-17T16:39:59.229Z,101272.16
2019-02-17T16:42:30.922Z,101271.73
2019-02-17T16:45:02.194Z,101263.05
2019-02-17T16:47:33.874Z,101264.84
2019-02-17T16:50:05.733Z,101259.66
2019-02-17T16:52:37.379Z,101263.17
2019-02-17T16:55:10.502Z,101267.97
2019-02-17T16:57:41.891Z,101267.98
2019-02-17T17:00:18.965Z,101265.38
2019-02-17T17:02:50.709Z,101278.48
2019-02-17T17:05:22.673Z,101272.81
2019-02-17T17:07:54.040Z,101268.88
2019-02-17T17:10:25.975Z,101271.08
2019-02-17T17:12:57.292Z,101274.98
2019-02-17T17:15:28.949Z,101277.17
2019-02-17T17:18:00.549Z,101276.29
2019-02-17T17:20:31.878Z,101272.79
2019-02-17T17:23:05.124Z,101268.00
2019-02-17T17:25:36.870Z,101271.88
2019-02-17T17:28:08.591Z,101271.86
2019-02-17T17:30:39.953Z,101277.06
2019-02-17T17:33:11.439Z,101272.67
2019-02-17T17:35:43.539Z,101270.47
2019-02-17T17:38:15.743Z,101273.50
2019-02-17T17:40:47.071Z,101270.83
2019-02-17T17:43:18.928Z,101267.75
2019-02-17T17:45:50.633Z,101269.02
2019-02-17T17:48:22.292Z,101265.95
2019-02-17T17:50:54.015Z,101271.61
2019-02-17T17:53:25.688Z,101265.38
2019-02-17T17:55:57.008Z,101262.31
2019-02-17T17:58:29.013Z,101253.13
2019-02-17T18:01:00.377Z,101263.53
2019-02-17T18:03:32.797Z,101263.94
2019-02-17T18:06:04.221Z,101259.08
2019-02-17T18:08:35.885Z,101257.34
2019-02-17T18:11:08.474Z,101264.22
2019-02-17T18:13:40.474Z,101256.39
2019-02-17T18:16:12.323Z,101255.05
2019-02-17T18:18:44.547Z,101253.63
2019-02-17T18:21:16.216Z,101261.42
2019-02-17T18:23:48.032Z,101261.38
2019-02-17T18:26:19.372Z,101261.75
2019-02-17T18:28:50.855Z,101250.81
2019-02-17T18:31:22.176Z,101256.94
2019-02-17T18:33:53.480Z,101248.98
2019-02-17T18:36:25.141Z,101254.56
2019-02-17T18:38:58.035Z,101255.81
2019-02-17T18:41:29.337Z,101251.39
2019-02-17T18:44:02.462Z,101251.30
2019-02-17T18:46:33.830Z,101253.87
2019-02-17T18:49:05.830Z,101254.30
2019-02-17T18:51:37.786Z,101250.29
2019-02-17T18:54:09.499Z,101254.98
2019-02-17T18:56:41.147Z,101251.78
2019-02-17T18:59:13.067Z,101255.33
2019-02-17T19:01:46.749Z,101255.64
2019-02-17T19:04:18.867Z,101255.08
2019-02-17T19:06:50.248Z,101252.83
2019-02-17T19:09:21.972Z,101254.05
2019-02-17T19:11:56.909Z,101248.73
2019-02-17T19:14:28.256Z,101248.23
2019-02-17T19:16:59.714Z,101250.77
2019-02-17T19:19:31.344Z,101246.39
2019-02-17T19:22:02.675Z,101244.55
2019-02-17T19:24:34.025Z,101241.41
2019-02-17T19:27:05.337Z,101243.55
2019-02-17T19:29:36.810Z,101239.07
2019-02-17T19:32:08.835Z,101237.69
2019-02-17T19:34:40.448Z,101246.27
2019-02-17T19:37:12.262Z,101242.79
2019-02-17T19:39:43.911Z,101242.10
2019-02-17T19:42:15.316Z,101240.39
2019-02-17T19:44:47.072Z,101247.77
2019-02-17T19:47:18.575Z,101244.16
2019-02-17T19:49:49.884Z,101245.86
2019-02-17T19:52:21.549Z,101248.88
2019-02-17T19:54:53.242Z,101246.19
2019-02-17T19:57:25.502Z,101244.59
2019-02-17T19:59:56.926Z,101248.17
2019-02-17T20:02:47.015Z,101259.31
2019-02-17T20:05:20.482Z,101254.11
2019-02-17T20:07:52.883Z,101257.02
2019-02-17T20:10:24.635Z,101260.65
2019-02-17T20:12:55.992Z,101265.02
2019-02-17T20:15:29.907Z,101269.28
2019-02-17T20:18:01.616Z,101267.51
2019-02-17T20:20:33.458Z,101265.63
2019-02-17T20:23:05.140Z,101270.42
2019-02-17T20:25:36.884Z,101266.88
2019-02-17T20:28:08.439Z,101268.06
2019-02-17T20:30:39.780Z,101262.41
2019-02-17T20:33:11.074Z,101257.98
2019-02-17T20:35:43.776Z,101255.28
2019-02-17T20:38:15.405Z,101246.85
2019-02-17T20:40:47.065Z,101254.98
2019-02-17T20:43:18.403Z,101253.16
2019-02-17T20:45:50.020Z,101256.22
2019-02-17T20:48:21.430Z,101254.56
2019-02-17T20:50:52.787Z,101256.44
2019-02-17T20:53:24.162Z,101257.45
2019-02-17T20:55:55.429Z,101254.78
2019-02-17T20:58:27.227Z,101253.84
2019-02-17T21:00:58.899Z,101254.61
2019-02-17T21:03:30.192Z,101255.08
2019-02-17T21:06:01.635Z,101254.34
2019-02-17T21:08:33.308Z,101257.70
2019-02-17T21:11:05.152Z,101261.12
2019-02-17T21:13:36.910Z,101259.07
2019-02-17T21:19:00.289Z,101259.09
2019-02-17T21:21:31.783Z,101256.91
2019-02-17T21:24:03.432Z,101257.11
2019-02-17T21:26:34.911Z,101254.84
2019-02-17T21:29:06.627Z,101257.80
2019-02-17T21:31:37.921Z,101254.58
2019-02-17T21:34:09.361Z,101260.19
2019-02-17T21:36:40.991Z,101265.63
2019-02-17T21:39:12.294Z,101254.31
2019-02-17T21:41:43.939Z,101263.65
2019-02-17T21:44:16.685Z,101261.30
2019-02-17T21:46:48.356Z,101257.55
2019-02-17T21:49:19.706Z,101258.92
2019-02-17T21:51:51.049Z,101255.34
2019-02-17T21:54:22.397Z,101273.32
2019-02-17T21:56:54.122Z,101247.04
2019-02-17T21:59:25.417Z,101251.59
2019-02-17T22:01:57.093Z,101249.80
2019-02-17T22:04:28.767Z,101242.44
2019-02-17T22:07:00.134Z,101244.40
2019-02-17T22:09:31.434Z,101250.34
2019-02-17T22:12:03.142Z,101238.49
2019-02-17T22:14:34.571Z,101240.53
2019-02-17T22:17:05.879Z,101241.06
2019-02-17T22:19:37.607Z,101234.90
2019-02-17T22:22:11.695Z,101240.70
2019-02-17T22:24:42.747Z,101235.45
2019-02-17T22:27:14.072Z,101240.46
2019-02-17T22:29:45.377Z,101238.72
2019-02-17T22:32:16.753Z,101234.34
2019-02-17T22:34:48.825Z,101233.94
2019-02-17T22:37:20.294Z,101237.27
2019-02-17T22:39:51.852Z,101232.95
2019-02-17T22:42:23.776Z,101241.84
2019-02-17T22:44:55.962Z,101233.95
2019-02-17T22:47:27.838Z,101241.88
2019-02-17T22:49:59.163Z,101240.58
2019-02-17T22:52:30.553Z,101239.11
2019-02-17T22:55:02.515Z,101243.78
2019-02-17T22:57:40.592Z,101243.85
2019-02-17T23:00:41.077Z,101243.30
2019-02-17T23:03:15.349Z,101241.94
2019-02-17T23:05:47.106Z,101247.88
2019-02-17T23:08:18.876Z,101246.59
2019-02-17T23:10:50.281Z,101247.64
2019-02-17T23:13:22.684Z,101248.52
2019-02-17T23:15:54.305Z,101248.88
2019-02-17T23:18:25.637Z,101251.84
2019-02-17T23:20:59.326Z,101251.42
2019-02-17T23:23:32.010Z,101253.50
2019-02-17T23:26:03.335Z,101250.08
2019-02-17T23:28:38.878Z,101254.74
2019-02-17T23:31:10.543Z,101250.69
2019-02-17T23:33:43.531Z,101251.56
2019-02-17T23:36:20.110Z,101252.75
2019-02-17T23:38:54.137Z,101247.63
2019-02-17T23:41:28.275Z,101252.58
2019-02-17T23:44:00.932Z,101247.37
2019-02-17T23:46:32.876Z,101250.62
2019-02-17T23:49:04.828Z,101247.06
2019-02-17T23:51:36.596Z,101240.63
2019-02-17T23:54:07.874Z,101246.84
2019-02-17T23:56:39.235Z,101247.03
2019-02-17T23:59:10.914Z,101246.43
